createdAt,value
2019-02-27T00:00:47.717Z,10.40
2019-02-27T00:03:14.273Z,10.10
2019-02-27T00:05:41.730Z,10.17
2019-02-27T00:08:08.630Z,9.30
2019-02-27T00:10:36.890Z,11.20
2019-02-27T00:13:03.337Z,11.00
2019-02-27T00:15:29.679Z,9.90
2019-02-27T00:17:56.091Z,9.30
2019-02-27T00:20:22.160Z,9.83
2019-02-27T00:22:50.670Z,9.80
2019-02-27T00:25:16.516Z,10.03
2019-02-27T00:27:42.864Z,10.60
2019-02-27T00:30:10.955Z,9.67
2019-02-27T00:32:37.016Z,9.53
2019-02-27T00:35:06.501Z,9.00
2019-02-27T00:37:31.960Z,9.53
2019-02-27T00:39:58.092Z,9.60
2019-02-27T00:42:33.110Z,9.10
2019-02-27T00:44:52.127Z,9.00
2019-02-27T00:47:20.127Z,9.47
2019-02-27T00:49:46.478Z,9.27
2019-02-27T00:52:12.948Z,9.37
2019-02-27T00:54:39.336Z,9.80
2019-02-27T00:57:05.383Z,8.60
2019-02-27T00:59:33.103Z,9.60
2019-02-27T01:01:59.969Z,8.50
2019-02-27T01:04:26.049Z,9.00
2019-02-27T01:06:52.096Z,9.80
2019-02-27T01:09:18.307Z,9.47
2019-02-27T01:11:44.383Z,8.57
2019-02-27T01:14:10.452Z,9.80
2019-02-27T01:16:36.817Z,8.83
2019-02-27T01:19:04.652Z,9.50
2019-02-27T01:21:32.128Z,8.23
2019-02-27T01:23:58.228Z,9.40
2019-02-27T01:26:24.615Z,8.83
2019-02-27T01:28:50.693Z,8.67
2019-02-27T01:31:16.758Z,8.57
2019-02-27T01:33:42.801Z,8.97
2019-02-27T01:36:08.885Z,9.37
2019-02-27T01:38:37.633Z,8.40
2019-02-27T01:41:03.285Z,9.13
2019-02-27T01:43:29.356Z,9.73
2019-02-27T01:45:55.435Z,9.27
2019-02-27T01:48:21.875Z,8.83
2019-02-27T01:50:48.162Z,9.17
2019-02-27T01:53:14.248Z,9.37
2019-02-27T01:55:40.296Z,8.83
2019-02-27T01:58:09.253Z,8.67
2019-02-27T02:00:35.129Z,9.40
2019-02-27T02:03:01.282Z,8.60
2019-02-27T02:05:27.513Z,8.83
2019-02-27T02:07:55.084Z,8.80
2019-02-27T02:10:21.621Z,9.37
2019-02-27T02:12:50.303Z,8.73
2019-02-27T02:15:28.920Z,8.93
2019-02-27T02:18:32.083Z,9.20
2019-02-27T02:21:04.960Z,8.90
2019-02-27T02:23:54.667Z,9.70
2019-02-27T02:26:32.148Z,9.47
2019-02-27T02:29:22.442Z,8.93
2019-02-27T02:31:52.298Z,8.07
2019-02-27T02:34:51.189Z,8.67
2019-02-27T02:37:25.767Z,9.20
2019-02-27T02:40:13.729Z,8.57
2019-02-27T02:42:52.259Z,8.67
2019-02-27T02:45:33.191Z,9.30
2019-02-27T02:48:23.996Z,8.60
2019-02-27T02:51:09.068Z,9.57
2019-02-27T02:53:48.754Z,8.37
2019-02-27T02:56:28.457Z,9.07
2019-02-27T02:59:31.465Z,8.87
2019-02-27T03:02:10.619Z,8.33
2019-02-27T03:05:02.885Z,9.17
2019-02-27T03:07:35.793Z,8.40
2019-02-27T03:10:15.037Z,8.60
2019-02-27T03:12:57.053Z,9.13
2019-02-27T03:15:44.973Z,8.13
2019-02-27T03:18:26.154Z,8.07
2019-02-27T03:20:54.208Z,9.00
2019-02-27T03:23:35.861Z,8.27
2019-02-27T03:26:23.977Z,8.53
2019-02-27T03:29:15.695Z,8.73
2019-02-27T03:32:03.101Z,8.83
2019-02-27T03:34:50.646Z,9.27
2019-02-27T03:37:18.136Z,9.33
2019-02-27T03:40:11.805Z,8.60
2019-02-27T03:42:58.504Z,9.23
2019-02-27T03:45:48.337Z,9.03
2019-02-27T03:48:33.217Z,8.37
2019-02-27T03:51:15.291Z,8.30
2019-02-27T03:53:51.098Z,9.00
2019-02-27T03:56:48.034Z,8.30
2019-02-27T03:59:51.552Z,9.57
2019-02-27T04:02:33.697Z,9.30
2019-02-27T04:05:09.628Z,9.10
2019-02-27T04:07:51.307Z,8.50
2019-02-27T04:10:17.796Z,8.73
2019-02-27T04:12:44.508Z,9.47
2019-02-27T04:15:10.578Z,9.07
2019-02-27T04:17:37.173Z,9.30
2019-02-27T04:20:05.353Z,8.03
2019-02-27T04:22:36.599Z,9.10
2019-02-27T04:25:00.035Z,8.40
2019-02-27T04:27:26.079Z,8.97
2019-02-27T04:29:52.406Z,8.80
2019-02-27T04:32:18.733Z,8.93
2019-02-27T04:34:44.789Z,8.87
2019-02-27T04:37:11.491Z,9.47
2019-02-27T04:39:38.286Z,8.83
2019-02-27T04:42:05.527Z,9.03
2019-02-27T04:44:31.941Z,8.67
2019-02-27T04:46:57.983Z,9.10
2019-02-27T04:49:24.061Z,8.87
2019-02-27T04:51:50.569Z,8.87
2019-02-27T04:54:17.592Z,7.97
2019-02-27T04:56:43.639Z,8.30
2019-02-27T04:59:10.013Z,8.50
2019-02-27T05:01:37.317Z,8.00
2019-02-27T05:04:04.608Z,8.90
2019-02-27T05:06:31.560Z,9.80
2019-02-27T05:09:00.200Z,8.00
2019-02-27T05:11:27.028Z,8.33
2019-02-27T05:13:54.833Z,8.77
2019-02-27T05:16:21.688Z,8.10
2019-02-27T05:18:47.761Z,8.80
2019-02-27T05:21:14.211Z,7.67
2019-02-27T05:23:40.268Z,8.17
2019-02-27T05:26:06.341Z,7.47
2019-02-27T05:28:34.993Z,8.17
2019-02-27T05:31:00.991Z,7.83
2019-02-27T05:33:27.057Z,8.37
2019-02-27T05:35:56.996Z,8.33
2019-02-27T05:38:21.082Z,8.23
2019-02-27T05:40:47.136Z,8.03
2019-02-27T05:43:14.076Z,8.50
2019-02-27T05:45:40.928Z,8.40
2019-02-27T05:48:07.012Z,7.73
2019-02-27T05:50:34.249Z,7.60
2019-02-27T05:53:01.036Z,7.80
2019-02-27T05:55:27.447Z,8.33
2019-02-27T05:57:54.199Z,8.03
2019-02-27T06:00:21.655Z,7.87
2019-02-27T06:02:47.700Z,10.07
2019-02-27T06:05:14.543Z,9.03
2019-02-27T06:07:40.859Z,8.60
2019-02-27T06:10:19.740Z,7.97
2019-02-27T06:12:43.787Z,9.10
2019-02-27T06:15:15.815Z,8.13
2019-02-27T06:17:43.630Z,8.20
2019-02-27T06:20:11.453Z,7.57
2019-02-27T06:22:37.498Z,8.03
2019-02-27T06:25:07.401Z,7.47
2019-02-27T06:27:33.843Z,7.60
2019-02-27T06:29:59.891Z,7.77
2019-02-27T06:32:25.944Z,7.10
2019-02-27T06:34:52.020Z,6.97
2019-02-27T06:37:18.069Z,7.43
2019-02-27T06:39:44.116Z,7.00
2019-02-27T06:42:10.584Z,7.23
2019-02-27T06:44:39.280Z,7.17
2019-02-27T06:47:07.049Z,7.70
2019-02-27T06:49:32.935Z,6.80
2019-02-27T06:51:59.261Z,8.20
2019-02-27T06:54:25.592Z,7.00
2019-02-27T06:56:52.331Z,7.43
2019-02-27T06:59:18.663Z,7.40
2019-02-27T07:01:47.492Z,6.93
2019-02-27T07:04:13.379Z,7.23
2019-02-27T07:06:39.696Z,7.23
2019-02-27T07:09:06.127Z,7.40
2019-02-27T07:11:32.460Z,7.40
2019-02-27T07:13:58.527Z,7.37
2019-02-27T07:16:24.607Z,7.17
2019-02-27T07:18:51.354Z,6.83
2019-02-27T07:21:17.501Z,7.40
2019-02-27T07:23:43.583Z,6.43
2019-02-27T07:26:09.660Z,7.03
2019-02-27T07:28:36.361Z,7.30
2019-02-27T07:31:02.441Z,7.13
2019-02-27T07:33:28.818Z,6.93
2019-02-27T07:35:55.551Z,6.80
2019-02-27T07:38:22.257Z,7.07
2019-02-27T07:40:49.166Z,6.70
2019-02-27T07:43:15.564Z,7.27
2019-02-27T07:45:42.805Z,6.80
2019-02-27T07:48:10.653Z,7.03
2019-02-27T07:50:36.700Z,6.83
2019-02-27T07:53:02.779Z,7.17
2019-02-27T07:55:29.176Z,6.70
2019-02-27T07:57:58.384Z,6.57
2019-02-27T08:00:23.568Z,5.97
2019-02-27T08:02:50.094Z,6.20
2019-02-27T08:05:17.658Z,6.17
2019-02-27T08:07:48.802Z,6.03
2019-02-27T08:10:23.828Z,5.70
2019-02-27T08:12:50.280Z,6.30
2019-02-27T08:15:18.454Z,7.13
2019-02-27T08:17:45.047Z,6.43
2019-02-27T08:20:13.656Z,5.93
2019-02-27T08:22:39.843Z,5.77
2019-02-27T08:25:09.591Z,6.50
2019-02-27T08:27:36.003Z,6.40
2019-02-27T08:30:04.511Z,6.00
2019-02-27T08:32:31.985Z,6.07
2019-02-27T08:34:59.217Z,6.20
2019-02-27T08:37:25.303Z,5.80
2019-02-27T08:39:51.663Z,6.60
2019-02-27T08:42:17.725Z,5.80
2019-02-27T08:44:45.761Z,5.83
2019-02-27T08:47:12.397Z,6.63
2019-02-27T08:49:38.443Z,5.13
2019-02-27T08:52:04.525Z,5.77
2019-02-27T08:54:33.050Z,5.27
2019-02-27T08:56:58.547Z,6.07
2019-02-27T08:59:24.596Z,5.63
2019-02-27T09:01:55.189Z,5.13
2019-02-27T09:04:19.264Z,5.50
2019-02-27T09:06:45.343Z,5.27
2019-02-27T09:09:11.392Z,5.83
2019-02-27T09:11:40.057Z,5.23
2019-02-27T09:14:05.453Z,5.23
2019-02-27T09:16:31.864Z,5.27
2019-02-27T09:18:58.284Z,6.03
2019-02-27T09:21:24.919Z,4.90
2019-02-27T09:23:52.976Z,5.70
2019-02-27T09:26:19.020Z,5.20
2019-02-27T09:28:45.221Z,5.87
2019-02-27T09:31:12.203Z,4.87
2019-02-27T09:33:39.323Z,5.10
2019-02-27T09:36:08.045Z,5.87
2019-02-27T09:38:35.152Z,5.00
2019-02-27T09:41:01.271Z,5.07
2019-02-27T09:43:27.959Z,4.73
2019-02-27T09:45:54.860Z,5.23
2019-02-27T09:48:20.935Z,5.40
2019-02-27T09:50:48.398Z,4.93
2019-02-27T09:53:14.967Z,5.27
2019-02-27T09:55:41.409Z,5.23
2019-02-27T09:58:11.266Z,5.10
2019-02-27T10:00:44.517Z,4.93
2019-02-27T10:03:10.679Z,5.70
2019-02-27T10:05:37.583Z,4.80
2019-02-27T10:08:07.507Z,5.37
2019-02-27T10:10:34.027Z,4.77
2019-02-27T10:13:03.353Z,4.80
2019-02-27T10:15:28.556Z,4.80
2019-02-27T10:17:54.636Z,4.90
2019-02-27T10:20:21.190Z,4.63
2019-02-27T10:22:47.236Z,5.00
2019-02-27T10:25:14.260Z,5.23
2019-02-27T10:27:40.304Z,4.20
2019-02-27T10:30:13.010Z,4.43
2019-02-27T10:32:39.065Z,4.30
2019-02-27T10:35:08.289Z,4.47
2019-02-27T10:37:34.445Z,4.70
2019-02-27T10:40:01.820Z,4.20
2019-02-27T10:42:28.273Z,4.67
2019-02-27T10:44:54.325Z,4.40
2019-02-27T10:47:20.377Z,4.30
2019-02-27T10:49:46.452Z,3.80
2019-02-27T10:52:12.492Z,4.47
2019-02-27T10:54:39.424Z,4.17
2019-02-27T10:57:06.888Z,4.07
2019-02-27T10:59:33.628Z,3.83
2019-02-27T11:01:59.675Z,3.60
2019-02-27T11:04:26.091Z,4.17
2019-02-27T11:06:52.137Z,3.97
2019-02-27T11:09:24.202Z,4.30
2019-02-27T11:11:53.696Z,4.30
2019-02-27T11:14:18.263Z,3.73
2019-02-27T11:16:44.360Z,3.70
2019-02-27T11:19:10.399Z,3.77
2019-02-27T11:21:36.869Z,4.47
2019-02-27T11:24:03.277Z,4.00
2019-02-27T11:26:33.222Z,4.00
2019-02-27T11:28:57.947Z,4.30
2019-02-27T11:31:24.621Z,3.73
2019-02-27T11:33:51.365Z,4.00
2019-02-27T11:36:17.792Z,3.67
2019-02-27T11:38:43.850Z,3.60
2019-02-27T11:41:10.019Z,3.40
2019-02-27T11:43:37.990Z,3.30
2019-02-27T11:46:04.624Z,3.70
2019-02-27T11:48:30.709Z,3.07
2019-02-27T11:50:56.756Z,3.30
2019-02-27T11:53:23.123Z,3.30
2019-02-27T11:55:49.467Z,3.30
2019-02-27T11:58:15.795Z,3.50
2019-02-27T12:00:41.853Z,3.37
2019-02-27T12:03:08.654Z,3.63
2019-02-27T12:05:36.242Z,3.70
2019-02-27T12:08:03.392Z,3.50
2019-02-27T12:10:31.571Z,3.47
2019-02-27T12:13:00.676Z,3.20
2019-02-27T12:15:27.667Z,3.23
2019-02-27T12:17:53.995Z,3.20
2019-02-27T12:20:22.788Z,2.70
2019-02-27T12:22:48.870Z,3.23
2019-02-27T12:25:16.489Z,3.13
2019-02-27T12:27:49.108Z,3.10
2019-02-27T12:30:16.540Z,3.23
2019-02-27T12:32:43.448Z,2.87
2019-02-27T12:35:13.672Z,2.80
2019-02-27T12:37:40.413Z,2.90
2019-02-27T12:40:17.784Z,2.67
2019-02-27T12:42:44.133Z,2.60
2019-02-27T12:45:16.103Z,3.00
2019-02-27T12:47:42.382Z,2.90
2019-02-27T12:50:10.695Z,3.23
2019-02-27T12:52:36.740Z,2.63
2019-02-27T12:55:05.238Z,2.80
2019-02-27T12:57:32.443Z,2.80
2019-02-27T12:59:58.778Z,2.57
2019-02-27T13:02:35.303Z,2.37
2019-02-27T13:04:53.246Z,3.13
2019-02-27T13:07:19.864Z,3.00
2019-02-27T13:09:46.672Z,3.07
2019-02-27T13:12:14.861Z,2.50
2019-02-27T13:14:40.824Z,2.60
2019-02-27T13:17:07.729Z,2.70
2019-02-27T13:19:33.796Z,2.73
2019-02-27T13:21:59.852Z,2.67
2019-02-27T13:24:26.284Z,2.90
2019-02-27T13:26:52.419Z,2.50
2019-02-27T13:29:20.534Z,2.37
2019-02-27T13:31:48.413Z,2.63
2019-02-27T13:34:15.380Z,2.57
2019-02-27T13:36:41.431Z,2.17
2019-02-27T13:39:08.861Z,2.10
2019-02-27T13:41:35.825Z,2.20
2019-02-27T13:44:02.147Z,2.10
2019-02-27T13:46:28.977Z,2.60
2019-02-27T13:48:55.487Z,2.30
2019-02-27T13:51:21.965Z,2.40
2019-02-27T13:53:48.379Z,2.00
2019-02-27T13:56:16.178Z,2.43
2019-02-27T13:58:42.800Z,2.27
2019-02-27T14:01:12.009Z,2.33
2019-02-27T14:03:37.768Z,2.10
2019-02-27T14:06:06.326Z,2.20
2019-02-27T14:08:32.914Z,2.10
2019-02-27T14:10:59.497Z,2.07
2019-02-27T14:13:25.547Z,2.27
2019-02-27T14:15:51.898Z,2.03
2019-02-27T14:18:17.991Z,2.30
2019-02-27T14:20:44.356Z,2.30
2019-02-27T14:23:11.933Z,2.30
2019-02-27T14:25:38.647Z,2.40
2019-02-27T14:28:04.697Z,1.97
2019-02-27T14:30:35.633Z,2.00
2019-02-27T14:33:03.456Z,2.13
2019-02-27T14:35:32.155Z,2.17
2019-02-27T14:37:57.517Z,1.93
2019-02-27T14:40:23.711Z,2.00
2019-02-27T14:42:53.960Z,2.33
2019-02-27T14:45:23.657Z,1.90
2019-02-27T14:47:49.849Z,2.20
2019-02-27T14:50:19.968Z,2.00
2019-02-27T14:52:46.015Z,2.20
2019-02-27T14:55:14.781Z,1.93
2019-02-27T14:57:42.988Z,2.03
2019-02-27T15:00:24.552Z,1.87
2019-02-27T15:02:52.095Z,2.00
2019-02-27T15:05:18.932Z,1.97
2019-02-27T15:07:45.032Z,1.80
2019-02-27T15:10:14.588Z,1.90
2019-02-27T15:12:40.641Z,1.80
2019-02-27T15:15:10.600Z,2.10
2019-02-27T15:17:37.017Z,1.60
2019-02-27T15:20:06.952Z,1.37
2019-02-27T15:22:33.283Z,1.97
2019-02-27T15:24:59.332Z,1.83
2019-02-27T15:27:25.776Z,2.00
2019-02-27T15:29:51.820Z,1.60
2019-02-27T15:32:17.923Z,1.40
2019-02-27T15:34:45.970Z,1.70
2019-02-27T15:37:11.976Z,1.63
2019-02-27T15:39:38.020Z,2.00
2019-02-27T15:42:08.549Z,1.63
2019-02-27T15:44:34.597Z,1.80
2019-02-27T15:47:00.373Z,1.67
2019-02-27T15:49:26.847Z,1.47
2019-02-27T15:51:52.895Z,1.77
2019-02-27T15:54:23.657Z,2.10
2019-02-27T15:56:47.320Z,2.30
2019-02-27T15:59:13.782Z,1.73
2019-02-27T16:01:40.500Z,2.47
2019-02-27T16:04:06.548Z,2.07
2019-02-27T16:06:32.961Z,2.40
2019-02-27T16:08:59.103Z,1.90
2019-02-27T16:11:25.423Z,2.33
2019-02-27T16:13:51.841Z,2.07
2019-02-27T16:16:22.274Z,1.87
2019-02-27T16:18:46.861Z,1.60
2019-02-27T16:21:12.935Z,1.43
2019-02-27T16:23:38.985Z,1.87
2019-02-27T16:26:05.743Z,1.70
2019-02-27T16:28:31.797Z,1.83
2019-02-27T16:30:58.248Z,1.60
2019-02-27T16:33:24.628Z,2.20
2019-02-27T16:35:51.137Z,1.63
2019-02-27T16:38:17.906Z,1.60
2019-02-27T16:40:44.236Z,1.93
2019-02-27T16:43:13.567Z,1.37
2019-02-27T16:45:39.971Z,1.80
2019-02-27T16:48:06.474Z,1.77
2019-02-27T16:50:33.962Z,1.60
2019-02-27T16:53:00.386Z,1.63
2019-02-27T16:55:27.953Z,1.40
2019-02-27T16:57:57.460Z,1.80
2019-02-27T17:00:26.587Z,1.60
2019-02-27T17:02:52.639Z,1.50
2019-02-27T17:05:19.000Z,1.70
2019-02-27T17:07:45.104Z,1.47
2019-02-27T17:10:18.741Z,1.40
2019-02-27T17:12:45.203Z,1.40
2019-02-27T17:15:11.361Z,1.73
2019-02-27T17:17:38.141Z,1.30
2019-02-27T17:20:11.760Z,1.63
2019-02-27T17:22:36.435Z,1.60
2019-02-27T17:25:04.251Z,1.80
2019-02-27T17:27:30.295Z,1.47
2019-02-27T17:29:59.761Z,1.60
2019-02-27T17:32:24.343Z,1.50
2019-02-27T17:34:50.426Z,1.47
2019-02-27T17:37:16.481Z,1.33
2019-02-27T17:39:42.519Z,1.30
2019-02-27T17:42:08.904Z,1.50
2019-02-27T17:44:35.297Z,1.50
2019-02-27T17:47:02.947Z,1.40
2019-02-27T17:49:29.027Z,1.67
2019-02-27T17:51:55.072Z,1.20
2019-02-27T17:54:21.128Z,1.50
2019-02-27T17:56:49.949Z,1.30
2019-02-27T17:59:15.763Z,1.40
2019-02-27T18:01:43.719Z,1.40
2019-02-27T18:04:14.420Z,1.70
2019-02-27T18:06:38.031Z,1.47
2019-02-27T18:09:05.219Z,1.80
2019-02-27T18:11:31.919Z,1.53
2019-02-27T18:13:58.256Z,1.73
2019-02-27T18:16:27.288Z,1.73
2019-02-27T18:18:52.961Z,2.07
2019-02-27T18:21:19.049Z,1.70
2019-02-27T18:23:45.095Z,1.60
2019-02-27T18:26:12.290Z,1.63
2019-02-27T18:28:39.129Z,2.00
2019-02-27T18:31:05.243Z,2.23
2019-02-27T18:33:32.008Z,2.00
2019-02-27T18:35:58.397Z,1.87
2019-02-27T18:38:27.597Z,2.20
2019-02-27T18:40:52.453Z,2.10
2019-02-27T18:43:18.817Z,1.80
2019-02-27T18:45:44.920Z,2.20
2019-02-27T18:48:10.968Z,2.20
2019-02-27T18:50:37.432Z,2.60
2019-02-27T18:53:03.580Z,2.30
2019-02-27T18:55:31.210Z,2.20
2019-02-27T18:57:58.234Z,2.50
2019-02-27T19:00:29.679Z,2.00
2019-02-27T19:02:58.983Z,2.40
2019-02-27T19:05:25.406Z,3.10
2019-02-27T19:07:54.960Z,3.20
2019-02-27T19:10:21.552Z,4.50
2019-02-27T19:12:47.660Z,3.23
2019-02-27T19:15:17.220Z,3.87
2019-02-27T19:17:43.361Z,4.00
2019-02-27T19:20:23.949Z,3.40
2019-02-27T19:22:47.171Z,3.30
2019-02-27T19:25:14.000Z,4.00
2019-02-27T19:27:40.835Z,3.27
2019-02-27T19:30:14.111Z,3.30
2019-02-27T19:32:41.148Z,3.30
2019-02-27T19:35:08.204Z,3.63
2019-02-27T19:37:36.357Z,4.03
2019-02-27T19:40:09.047Z,3.70
2019-02-27T19:42:36.060Z,3.43
2019-02-27T19:45:05.501Z,3.77
2019-02-27T19:47:31.827Z,3.30
2019-02-27T19:49:57.935Z,3.30
2019-02-27T19:52:26.641Z,3.53
2019-02-27T19:54:52.933Z,3.20
2019-02-27T19:57:19.911Z,3.60
2019-02-27T19:59:46.026Z,3.73
2019-02-27T20:02:12.463Z,3.23
2019-02-27T20:04:42.896Z,3.40
2019-02-27T20:07:06.580Z,3.70
2019-02-27T20:09:32.728Z,4.00
2019-02-27T20:11:59.125Z,3.83
2019-02-27T20:14:25.224Z,4.13
2019-02-27T20:16:54.893Z,3.50
2019-02-27T20:19:22.566Z,4.03
2019-02-27T20:21:48.853Z,4.00
2019-02-27T20:24:15.464Z,3.60
2019-02-27T20:26:44.727Z,3.70
2019-02-27T20:29:10.167Z,4.17
2019-02-27T20:31:36.271Z,4.30
2019-02-27T20:34:02.321Z,3.50
2019-02-27T20:36:32.458Z,4.50
2019-02-27T20:38:57.168Z,3.93
2019-02-27T20:41:23.579Z,4.67
2019-02-27T20:43:49.623Z,4.67
2019-02-27T20:46:15.784Z,4.27
2019-02-27T20:48:42.406Z,3.93
2019-02-27T20:51:09.508Z,4.83
2019-02-27T20:53:35.848Z,5.33
2019-02-27T20:56:03.048Z,4.13
2019-02-27T20:58:30.137Z,4.90
2019-02-27T21:00:56.428Z,3.97
2019-02-27T21:03:26.742Z,4.10
2019-02-27T21:05:52.405Z,4.47
2019-02-27T21:08:18.893Z,4.33
2019-02-27T21:10:44.992Z,4.20
2019-02-27T21:13:15.646Z,4.30
2019-02-27T21:15:39.360Z,4.77
2019-02-27T21:18:05.439Z,4.83
2019-02-27T21:20:33.125Z,4.90
2019-02-27T21:23:00.261Z,4.83
2019-02-27T21:25:28.567Z,4.70
2019-02-27T21:27:54.612Z,5.13
2019-02-27T21:30:25.129Z,4.80
2019-02-27T21:32:51.175Z,4.60
2019-02-27T21:35:17.280Z,5.20
2019-02-27T21:37:45.524Z,5.00
2019-02-27T21:40:16.514Z,5.23
2019-02-27T21:42:43.238Z,5.23
2019-02-27T21:45:17.949Z,4.47
2019-02-27T21:47:44.204Z,5.57
2019-02-27T21:50:13.784Z,4.73
2019-02-27T21:52:40.251Z,5.30
2019-02-27T21:55:12.681Z,4.93
2019-02-27T21:57:36.825Z,4.50
2019-02-27T22:00:05.457Z,5.00
2019-02-27T22:02:31.900Z,5.07
2019-02-27T22:04:57.948Z,4.70
2019-02-27T22:07:24.344Z,5.37
2019-02-27T22:09:50.669Z,5.03
2019-02-27T22:12:16.711Z,4.93
2019-02-27T22:14:43.140Z,4.73
2019-02-27T22:17:09.452Z,5.13
2019-02-27T22:19:35.496Z,5.67
2019-02-27T22:22:01.783Z,5.00
2019-02-27T22:24:27.968Z,5.10
2019-02-27T22:26:54.015Z,5.60
2019-02-27T22:29:20.391Z,4.77
2019-02-27T22:31:46.451Z,4.90
2019-02-27T22:34:12.501Z,5.40
2019-02-27T22:36:38.580Z,5.67
2019-02-27T22:39:05.537Z,5.40
2019-02-27T22:41:31.981Z,5.70
2019-02-27T22:43:58.029Z,6.10
2019-02-27T22:46:24.081Z,6.23
2019-02-27T22:48:50.155Z,6.30
2019-02-27T22:51:16.236Z,5.40
2019-02-27T22:53:42.647Z,5.70
2019-02-27T22:56:08.701Z,6.57
2019-02-27T22:58:35.216Z,6.60
2019-02-27T23:01:10.351Z,6.63
2019-02-27T23:03:39.036Z,5.80
2019-02-27T23:06:09.230Z,6.80
2019-02-27T23:08:35.892Z,7.00
2019-02-27T23:11:03.711Z,6.50
2019-02-27T23:13:30.196Z,6.67
2019-02-27T23:15:58.886Z,6.20
2019-02-27T23:18:24.224Z,6.37
2019-02-27T23:20:52.471Z,6.87
2019-02-27T23:23:18.931Z,6.90
2019-02-27T23:25:46.541Z,7.30
2019-02-27T23:28:13.139Z,6.60
2019-02-27T23:30:39.345Z,6.50
2019-02-27T23:33:05.644Z,5.97
2019-02-27T23:35:31.728Z,6.30
2019-02-27T23:38:02.974Z,7.00
2019-02-27T23:40:25.760Z,6.43
2019-02-27T23:42:52.504Z,7.40
2019-02-27T23:45:18.589Z,7.00
2019-02-27T23:47:45.038Z,6.90
2019-02-27T23:50:13.479Z,7.07
2019-02-27T23:52:39.685Z,7.67
2019-02-27T23:55:07.172Z,7.33
2019-02-27T23:57:33.708Z,6.57
2019-02-27T23:59:59.788Z,7.07
